Time;durP1;ratioP1;P1;durP2;ratioP2;P2;SDS_P1;SDS_P2;PMS_P1;PMS_P2;Temp;Humidity;BMP_temperature;BMP_pressure;BME280_temperature;BME280_humidity;BME280_pressure;Samples;Min_cycle;Max_cycle;Signal;HPM_P1;HPM_P2
2023/01/30 00:00:51;;;;;;;15.10;8.85;;;;;;;;;;5072756;28;21274;-58
2023/01/30 00:03:17;;;;;;;17.77;9.52;;;;;;;;;;5072132;28;20542;-58
2023/01/30 00:05:43;;;;;;;17.42;9.55;;;;;;;;;;5073703;28;20558;-58
2023/01/30 00:08:09;;;;;;;19.55;10.05;;;;;;;;;;5072726;28;20049;-58
2023/01/30 00:10:35;;;;;;;19.38;11.50;;;;;;;;;;5070988;28;20822;-58
2023/01/30 00:13:01;;;;;;;16.10;10.35;;;;;;;;;;5071256;28;20106;-57
2023/01/30 00:15:27;;;;;;;19.75;10.90;;;;;;;;;;5071689;28;20097;-58
2023/01/30 00:17:53;;;;;;;18.00;8.65;;;;;;;;;;5072080;28;20056;-57
2023/01/30 00:20:19;;;;;;;18.30;11.32;;;;;;;;;;5072922;28;20052;-57
2023/01/30 00:22:45;;;;;;;20.92;10.45;;;;;;;;;;5072975;28;20040;-57
2023/01/30 00:25:11;;;;;;;25.48;10.20;;;;;;;;;;5072097;28;20036;-57
2023/01/30 00:27:37;;;;;;;17.20;10.82;;;;;;;;;;5087311;27;20047;-57
2023/01/30 00:30:06;;;;;;;18.58;9.73;;;;;;;;;;5070822;28;20055;-57
2023/01/30 00:32:32;;;;;;;17.77;10.90;;;;;;;;;;5069517;28;20451;-57
2023/01/30 00:34:58;;;;;;;16.75;11.63;;;;;;;;;;5071811;28;20044;-57
2023/01/30 00:37:24;;;;;;;18.20;10.55;;;;;;;;;;5071646;28;20054;-57
2023/01/30 00:39:50;;;;;;;17.35;10.88;;;;;;;;;;5068654;28;20536;-58
2023/01/30 00:47:48;;;;;;;16.33;10.07;;;;;;;;;;5072614;28;20080;-57
2023/01/30 00:50:14;;;;;;;28.75;13.68;;;;;;;;;;5071110;28;20049;-57
2023/01/30 00:52:40;;;;;;;14.13;9.27;;;;;;;;;;5072627;28;20134;-58
2023/01/30 00:55:06;;;;;;;20.05;11.43;;;;;;;;;;5068117;28;20049;-57
2023/01/30 00:57:32;;;;;;;20.45;10.68;;;;;;;;;;5068821;28;20041;-57
2023/01/30 00:59:58;;;;;;;16.52;11.35;;;;;;;;;;5069520;28;20097;-57
2023/01/30 01:02:24;;;;;;;16.63;9.38;;;;;;;;;;5070711;28;20040;-57
2023/01/30 01:04:51;;;;;;;17.60;9.30;;;;;;;;;;5072441;28;20132;-57
2023/01/30 01:07:17;;;;;;;19.38;11.07;;;;;;;;;;5071172;28;20036;-57
2023/01/30 01:09:43;;;;;;;17.80;10.77;;;;;;;;;;5070549;28;20753;-57
2023/01/30 01:12:09;;;;;;;18.67;10.40;;;;;;;;;;5070735;28;20716;-58
2023/01/30 01:14:35;;;;;;;18.67;10.38;;;;;;;;;;5070517;28;20067;-57
2023/01/30 01:17:01;;;;;;;20.30;10.10;;;;;;;;;;5069792;28;20068;-58
2023/01/30 01:19:27;;;;;;;17.05;9.15;;;;;;;;;;5071460;28;20138;-57
2023/01/30 01:21:53;;;;;;;18.90;10.07;;;;;;;;;;5070981;28;20078;-60
2023/01/30 01:24:19;;;;;;;17.35;10.38;;;;;;;;;;5068848;28;20036;-58
2023/01/30 01:26:45;;;;;;;17.50;9.48;;;;;;;;;;5072422;28;20571;-57
2023/01/30 01:29:12;;;;;;;23.08;12.02;;;;;;;;;;5072011;28;20051;-58
2023/01/30 01:31:38;;;;;;;17.63;10.02;;;;;;;;;;5070879;28;20114;-58
2023/01/30 01:34:05;;;;;;;18.05;11.00;;;;;;;;;;5073506;28;20128;-57
2023/01/30 01:36:31;;;;;;;16.80;8.95;;;;;;;;;;5072629;28;20048;-58
2023/01/30 01:38:57;;;;;;;20.70;11.27;;;;;;;;;;5071786;28;20154;-57
2023/01/30 01:41:23;;;;;;;18.77;11.15;;;;;;;;;;5072252;28;20956;-57
2023/01/30 01:44:03;;;;;;;18.27;10.80;;;;;;;;;;5072903;28;20860;-57
2023/01/30 01:46:31;;;;;;;25.75;11.20;;;;;;;;;;5067845;28;20024;-57
2023/01/30 01:48:59;;;;;;;18.55;10.80;;;;;;;;;;5071713;28;20080;-58
2023/01/30 01:51:31;;;;;;;19.30;11.50;;;;;;;;;;5070715;27;20049;-57
2023/01/30 01:54:06;;;;;;;20.38;11.57;;;;;;;;;;5070488;28;20048;-57
2023/01/30 01:56:33;;;;;;;20.30;11.00;;;;;;;;;;5072015;28;20174;-58
2023/01/30 01:59:08;;;;;;;18.95;11.55;;;;;;;;;;5075981;28;20052;-57
2023/01/30 02:01:34;;;;;;;17.13;10.20;;;;;;;;;;5073288;28;20122;-58
2023/01/30 02:04:02;;;;;;;21.73;11.05;;;;;;;;;;5075097;28;20040;-57
2023/01/30 02:06:29;;;;;;;18.98;9.32;;;;;;;;;;5073867;28;20048;-58
2023/01/30 02:08:58;;;;;;;20.30;11.30;;;;;;;;;;5072822;28;20052;-57
2023/01/30 02:11:36;;;;;;;14.65;9.02;;;;;;;;;;5071680;28;20048;-57
2023/01/30 02:14:03;;;;;;;26.70;12.30;;;;;;;;;;5071554;28;22078;-57
2023/01/30 02:16:29;;;;;;;19.27;9.63;;;;;;;;;;5083353;27;20132;-57
2023/01/30 02:18:55;;;;;;;18.73;10.48;;;;;;;;;;5068513;28;20040;-57
2023/01/30 02:21:27;;;;;;;16.42;7.60;;;;;;;;;;5072016;28;20071;-57
2023/01/30 02:24:12;;;;;;;17.45;11.32;;;;;;;;;;5066246;28;20118;-57
2023/01/30 02:26:38;;;;;;;20.83;11.70;;;;;;;;;;5072470;28;20032;-57
2023/01/30 02:29:04;;;;;;;20.75;10.88;;;;;;;;;;5071151;28;20044;-57
2023/01/30 02:31:40;;;;;;;20.48;9.68;;;;;;;;;;5072699;28;20638;-58
2023/01/30 02:34:15;;;;;;;18.00;9.30;;;;;;;;;;5072629;28;20040;-57
2023/01/30 02:36:44;;;;;;;11.55;6.68;;;;;;;;;;5084589;27;20483;-58
2023/01/30 02:39:16;;;;;;;18.35;11.25;;;;;;;;;;5070132;28;21724;-58
2023/01/30 02:42:01;;;;;;;23.95;9.65;;;;;;;;;;5068504;28;20070;-58
2023/01/30 02:44:35;;;;;;;17.65;9.98;;;;;;;;;;5070833;28;20040;-57
2023/01/30 02:47:08;;;;;;;15.57;9.45;;;;;;;;;;5070734;28;20095;-58
2023/01/30 02:49:39;;;;;;;19.13;10.35;;;;;;;;;;5070905;28;20536;-57
2023/01/30 02:52:07;;;;;;;19.92;11.52;;;;;;;;;;5072556;28;20123;-57
2023/01/30 02:54:33;;;;;;;19.80;11.25;;;;;;;;;;5066859;28;20874;-57
2023/01/30 02:56:59;;;;;;;17.40;10.02;;;;;;;;;;5071752;28;20047;-57
2023/01/30 02:59:28;;;;;;;18.30;10.27;;;;;;;;;;5071266;28;20152;-57
2023/01/30 03:02:27;;;;;;;17.85;10.07;;;;;;;;;;5070718;28;21317;-57
2023/01/30 03:05:08;;;;;;;20.23;10.43;;;;;;;;;;5067372;28;20059;-57
2023/01/30 03:07:46;;;;;;;18.63;9.98;;;;;;;;;;5070265;28;20090;-57
2023/01/30 03:10:18;;;;;;;18.73;9.80;;;;;;;;;;5070031;28;20045;-58
2023/01/30 03:12:47;;;;;;;19.92;9.20;;;;;;;;;;5068973;28;20085;-58
2023/01/30 03:15:17;;;;;;;16.20;9.48;;;;;;;;;;5069969;28;20036;-57
2023/01/30 03:17:45;;;;;;;17.85;10.60;;;;;;;;;;5067934;28;20106;-57
2023/01/30 03:20:11;;;;;;;18.20;10.05;;;;;;;;;;5068542;28;20487;-57
2023/01/30 03:22:37;;;;;;;19.85;10.65;;;;;;;;;;5071022;28;20124;-58
2023/01/30 03:25:03;;;;;;;15.38;8.60;;;;;;;;;;5070083;28;20036;-57
2023/01/30 03:27:29;;;;;;;22.25;10.73;;;;;;;;;;5070187;28;20636;-58
2023/01/30 03:29:56;;;;;;;14.07;8.30;;;;;;;;;;5098769;27;20041;-57
2023/01/30 03:32:22;;;;;;;19.23;10.27;;;;;;;;;;5071215;28;20045;-57
2023/01/30 03:34:48;;;;;;;16.45;9.18;;;;;;;;;;5069451;28;20060;-58
2023/01/30 03:37:14;;;;;;;18.88;10.80;;;;;;;;;;5067350;28;20132;-57
2023/01/30 03:39:40;;;;;;;17.48;9.88;;;;;;;;;;5069927;28;20054;-58
2023/01/30 03:42:06;;;;;;;18.17;8.02;;;;;;;;;;5070891;28;20545;-57
2023/01/30 03:44:32;;;;;;;20.98;10.52;;;;;;;;;;5072705;28;20036;-57
2023/01/30 03:46:58;;;;;;;19.52;9.85;;;;;;;;;;5071257;28;20140;-57
2023/01/30 03:49:24;;;;;;;14.18;8.73;;;;;;;;;;5072638;27;21242;-57
2023/01/30 03:51:50;;;;;;;18.67;8.57;;;;;;;;;;5074432;28;20048;-57
2023/01/30 03:54:16;;;;;;;22.40;11.68;;;;;;;;;;5073550;28;20413;-58
2023/01/30 03:56:43;;;;;;;14.82;8.93;;;;;;;;;;5071428;28;20570;-58
2023/01/30 03:59:09;;;;;;;18.77;11.07;;;;;;;;;;5074058;28;20586;-57
2023/01/30 04:01:35;;;;;;;17.90;9.73;;;;;;;;;;5073775;28;20044;-57
2023/01/30 04:04:01;;;;;;;15.77;7.50;;;;;;;;;;5073952;28;22472;-57
2023/01/30 04:06:27;;;;;;;19.27;10.57;;;;;;;;;;5074081;28;20032;-57
2023/01/30 04:08:53;;;;;;;9.48;6.60;;;;;;;;;;5072285;28;20044;-58
2023/01/30 04:11:19;;;;;;;15.10;8.45;;;;;;;;;;5073306;28;20557;-57
2023/01/30 04:13:45;;;;;;;16.52;9.00;;;;;;;;;;5071686;28;20049;-57
2023/01/30 04:16:15;;;;;;;17.42;10.77;;;;;;;;;;5072691;28;20072;-57
2023/01/30 04:18:41;;;;;;;9.23;4.53;;;;;;;;;;5071992;28;21061;-57
2023/01/30 04:21:07;;;;;;;13.38;8.85;;;;;;;;;;5071734;28;20094;-57
2023/01/30 04:23:33;;;;;;;12.30;7.18;;;;;;;;;;5070125;28;20041;-57
2023/01/30 04:25:59;;;;;;;21.20;8.43;;;;;;;;;;5072399;28;20147;-57
2023/01/30 04:28:25;;;;;;;15.77;9.48;;;;;;;;;;5070809;28;21107;-57
2023/01/30 04:30:52;;;;;;;16.65;9.75;;;;;;;;;;5073076;28;20033;-58
2023/01/30 04:33:18;;;;;;;17.85;10.00;;;;;;;;;;5072386;28;20150;-57
2023/01/30 04:36:11;;;;;;;16.90;8.55;;;;;;;;;;5072462;28;20685;-58
2023/01/30 04:38:37;;;;;;;18.60;9.45;;;;;;;;;;5065531;28;20048;-58
2023/01/30 04:41:04;;;;;;;16.35;8.57;;;;;;;;;;5072522;28;20045;-57
2023/01/30 04:43:30;;;;;;;13.43;7.93;;;;;;;;;;5071511;28;20055;-57
2023/01/30 04:45:56;;;;;;;18.02;10.43;;;;;;;;;;5072171;28;20040;-57
2023/01/30 04:48:23;;;;;;;14.32;8.05;;;;;;;;;;5072550;28;20132;-57
2023/01/30 04:50:50;;;;;;;17.38;9.45;;;;;;;;;;5086783;27;20083;-57
2023/01/30 04:53:17;;;;;;;21.63;10.65;;;;;;;;;;5070350;28;21098;-58
2023/01/30 04:55:43;;;;;;;18.52;7.57;;;;;;;;;;5071194;28;20116;-58
2023/01/30 04:58:10;;;;;;;16.23;8.18;;;;;;;;;;5071882;28;20150;-57
2023/01/30 05:00:36;;;;;;;15.80;9.63;;;;;;;;;;5070826;28;20041;-57
2023/01/30 05:03:02;;;;;;;20.48;9.73;;;;;;;;;;5072818;28;20662;-57
2023/01/30 05:05:28;;;;;;;17.30;8.52;;;;;;;;;;5072414;28;20109;-57
2023/01/30 05:07:54;;;;;;;18.95;9.50;;;;;;;;;;5070183;28;20044;-57
2023/01/30 05:10:20;;;;;;;17.77;9.27;;;;;;;;;;5072582;28;20036;-57
2023/01/30 05:12:46;;;;;;;15.88;10.05;;;;;;;;;;5071300;28;20052;-58
2023/01/30 05:15:13;;;;;;;19.27;11.57;;;;;;;;;;5072355;28;20090;-58
2023/01/30 05:17:39;;;;;;;17.63;9.93;;;;;;;;;;5070849;28;20075;-57
2023/01/30 05:20:06;;;;;;;16.27;9.13;;;;;;;;;;5073309;28;20531;-57
2023/01/30 05:22:32;;;;;;;19.58;9.73;;;;;;;;;;5071117;28;20040;-58
2023/01/30 05:24:59;;;;;;;20.67;11.45;;;;;;;;;;5067643;28;20051;-57
2023/01/30 05:27:25;;;;;;;18.13;9.77;;;;;;;;;;5067852;28;20122;-57
2023/01/30 05:29:51;;;;;;;19.38;10.90;;;;;;;;;;5070914;28;20076;-57
2023/01/30 05:32:18;;;;;;;19.83;11.32;;;;;;;;;;5070795;28;20070;-58
2023/01/30 05:34:44;;;;;;;13.93;8.52;;;;;;;;;;5071611;28;20045;-57
2023/01/30 05:37:10;;;;;;;18.92;9.35;;;;;;;;;;5071984;28;20047;-58
2023/01/30 05:39:36;;;;;;;16.75;9.73;;;;;;;;;;5070235;28;20114;-57
2023/01/30 05:42:03;;;;;;;17.55;10.25;;;;;;;;;;5070997;28;20041;-57
2023/01/30 05:44:29;;;;;;;17.85;10.93;;;;;;;;;;5072120;28;20041;-58
2023/01/30 05:46:55;;;;;;;16.70;9.25;;;;;;;;;;5068262;28;20037;-57
2023/01/30 05:49:21;;;;;;;20.08;11.45;;;;;;;;;;5084154;27;20075;-57
2023/01/30 05:51:47;;;;;;;20.50;9.63;;;;;;;;;;5068297;27;20041;-57
2023/01/30 05:54:13;;;;;;;21.88;11.13;;;;;;;;;;5067669;28;20128;-57
2023/01/30 05:56:39;;;;;;;19.10;10.48;;;;;;;;;;5070551;28;20597;-58
2023/01/30 05:59:05;;;;;;;20.20;11.88;;;;;;;;;;5070793;28;20079;-57
2023/01/30 06:01:32;;;;;;;16.25;8.10;;;;;;;;;;5065923;28;20051;-57
2023/01/30 06:03:58;;;;;;;15.60;9.63;;;;;;;;;;5065307;28;20048;-57
2023/01/30 06:06:24;;;;;;;16.38;9.30;;;;;;;;;;5068274;28;20525;-57
2023/01/30 06:08:54;;;;;;;18.15;10.57;;;;;;;;;;5068544;28;20103;-57
2023/01/30 06:11:21;;;;;;;15.60;10.27;;;;;;;;;;5066580;28;20060;-57
2023/01/30 06:13:47;;;;;;;16.23;9.77;;;;;;;;;;5068007;28;20041;-57
2023/01/30 06:16:13;;;;;;;18.63;9.85;;;;;;;;;;5067433;27;20532;-57
2023/01/30 06:18:40;;;;;;;14.40;8.00;;;;;;;;;;5069168;28;20052;-57
2023/01/30 06:21:06;;;;;;;17.65;9.75;;;;;;;;;;5063780;28;20116;-57
2023/01/30 06:23:32;;;;;;;18.33;9.38;;;;;;;;;;5064975;28;20152;-57
2023/01/30 06:25:58;;;;;;;23.58;9.95;;;;;;;;;;5065132;28;20109;-56
2023/01/30 06:28:25;;;;;;;12.05;7.07;;;;;;;;;;5069420;28;20112;-57
2023/01/30 06:30:51;;;;;;;20.70;10.30;;;;;;;;;;5067251;28;20059;-57
2023/01/30 06:33:18;;;;;;;14.98;9.35;;;;;;;;;;5072026;28;20043;-57
2023/01/30 06:35:44;;;;;;;17.25;9.77;;;;;;;;;;5073413;28;20040;-57
2023/01/30 06:38:12;;;;;;;18.38;8.90;;;;;;;;;;5073885;28;20051;-57
2023/01/30 06:40:39;;;;;;;15.55;8.38;;;;;;;;;;5074796;28;20102;-57
2023/01/30 06:43:05;;;;;;;17.02;9.85;;;;;;;;;;5074445;28;20077;-57
2023/01/30 06:45:31;;;;;;;21.15;11.27;;;;;;;;;;5073160;28;20055;-57
2023/01/30 06:47:57;;;;;;;13.10;8.35;;;;;;;;;;5068366;28;20876;-57
2023/01/30 06:50:25;;;;;;;15.00;9.70;;;;;;;;;;5068519;28;20090;-57
2023/01/30 06:52:52;;;;;;;18.17;8.85;;;;;;;;;;5073931;28;20040;-57
2023/01/30 06:55:19;;;;;;;15.10;8.60;;;;;;;;;;5073029;28;20044;-58
2023/01/30 06:57:45;;;;;;;15.30;9.40;;;;;;;;;;5068320;28;20045;-57
2023/01/30 07:00:13;;;;;;;24.48;10.65;;;;;;;;;;5073109;28;20040;-57
2023/01/30 07:02:39;;;;;;;16.30;8.77;;;;;;;;;;5072177;28;20052;-58
2023/01/30 07:05:06;;;;;;;16.30;9.50;;;;;;;;;;5070585;28;20047;-57
2023/01/30 07:07:32;;;;;;;18.13;9.07;;;;;;;;;;5069224;28;20123;-57
2023/01/30 07:09:59;;;;;;;14.25;8.40;;;;;;;;;;5068951;28;20044;-57
2023/01/30 07:12:26;;;;;;;18.42;9.68;;;;;;;;;;5069290;28;20242;-56
2023/01/30 07:14:54;;;;;;;16.20;8.93;;;;;;;;;;5069568;28;20511;-56
2023/01/30 07:17:21;;;;;;;13.68;7.68;;;;;;;;;;5069772;28;20047;-57
2023/01/30 07:19:47;;;;;;;12.95;6.57;;;;;;;;;;5072919;28;20421;-57
2023/01/30 07:22:13;;;;;;;14.10;7.70;;;;;;;;;;5072590;28;20052;-57
2023/01/30 07:24:41;;;;;;;13.98;8.40;;;;;;;;;;5069684;28;20055;-57
2023/01/30 07:27:08;;;;;;;13.93;7.38;;;;;;;;;;5071651;28;20494;-56
2023/01/30 07:29:34;;;;;;;13.63;7.57;;;;;;;;;;5066248;28;20040;-57
2023/01/30 07:32:00;;;;;;;12.57;7.20;;;;;;;;;;5070741;28;20200;-57
2023/01/30 07:34:26;;;;;;;12.57;7.15;;;;;;;;;;5070544;28;20041;-57
2023/01/30 07:36:53;;;;;;;13.55;7.18;;;;;;;;;;5070981;28;20045;-57
2023/01/30 07:39:19;;;;;;;10.02;5.30;;;;;;;;;;5066581;28;20044;-57
2023/01/30 07:41:45;;;;;;;13.73;7.10;;;;;;;;;;5069901;28;20055;-56
2023/01/30 07:44:12;;;;;;;10.55;6.13;;;;;;;;;;5064786;28;20506;-56
2023/01/30 07:46:38;;;;;;;8.07;4.25;;;;;;;;;;5066891;28;20052;-56
2023/01/30 07:49:05;;;;;;;11.45;7.00;;;;;;;;;;5068317;28;20604;-56
2023/01/30 07:51:31;;;;;;;9.50;5.38;;;;;;;;;;5072933;28;20040;-55
2023/01/30 07:53:57;;;;;;;7.35;4.82;;;;;;;;;;5073207;28;20044;-56
2023/01/30 07:56:23;;;;;;;9.00;5.43;;;;;;;;;;5073911;28;20067;-56
2023/01/30 07:58:54;;;;;;;8.23;5.43;;;;;;;;;;5089789;27;20032;-57
2023/01/30 08:01:20;;;;;;;13.20;8.05;;;;;;;;;;5073985;28;21029;-56
2023/01/30 08:03:48;;;;;;;10.52;5.40;;;;;;;;;;5074947;28;20039;-56
2023/01/30 08:06:14;;;;;;;15.13;7.15;;;;;;;;;;5068506;28;20366;-55
2023/01/30 08:08:40;;;;;;;10.02;6.78;;;;;;;;;;5075190;28;20044;-56
2023/01/30 08:11:06;;;;;;;12.45;7.20;;;;;;;;;;5076632;28;20606;-56
2023/01/30 08:13:33;;;;;;;10.43;7.13;;;;;;;;;;5075852;28;20456;-56
2023/01/30 08:16:03;;;;;;;12.07;6.57;;;;;;;;;;5075896;28;20569;-56
2023/01/30 08:18:29;;;;;;;13.90;7.38;;;;;;;;;;5076437;28;20583;-56
2023/01/30 08:20:59;;;;;;;10.10;6.43;;;;;;;;;;5075131;28;20040;-56
2023/01/30 08:23:26;;;;;;;10.82;5.97;;;;;;;;;;5074709;28;20052;-56
2023/01/30 08:25:55;;;;;;;13.10;6.68;;;;;;;;;;5075662;28;20124;-56
2023/01/30 08:28:21;;;;;;;9.93;6.22;;;;;;;;;;5073795;28;20486;-56
2023/01/30 08:30:48;;;;;;;10.40;6.53;;;;;;;;;;5075740;28;20084;-56
2023/01/30 08:33:14;;;;;;;15.00;7.28;;;;;;;;;;5071023;28;20487;-56
2023/01/30 08:35:40;;;;;;;14.18;7.80;;;;;;;;;;5073673;28;20044;-56
2023/01/30 08:38:10;;;;;;;11.73;6.78;;;;;;;;;;5106037;27;20048;-56
2023/01/30 08:40:36;;;;;;;10.85;6.43;;;;;;;;;;5075236;28;20049;-55
2023/01/30 08:43:02;;;;;;;12.77;6.35;;;;;;;;;;5073183;28;20040;-56
2023/01/30 08:45:29;;;;;;;9.70;5.63;;;;;;;;;;5072296;28;20037;-56
2023/01/30 08:48:02;;;;;;;10.88;5.97;;;;;;;;;;5071572;28;20166;-56
2023/01/30 08:50:28;;;;;;;11.50;5.57;;;;;;;;;;5073925;28;20041;-56
2023/01/30 08:52:54;;;;;;;9.23;5.43;;;;;;;;;;5073708;28;20036;-56
2023/01/30 08:55:20;;;;;;;12.75;6.43;;;;;;;;;;5073086;28;20052;-56
2023/01/30 08:57:47;;;;;;;9.85;5.35;;;;;;;;;;5074038;28;20072;-56
2023/01/30 09:00:13;;;;;;;10.30;6.28;;;;;;;;;;5074196;28;20118;-56
2023/01/30 09:02:39;;;;;;;9.50;5.00;;;;;;;;;;5074131;28;20047;-56
2023/01/30 09:05:06;;;;;;;8.23;5.10;;;;;;;;;;5072392;28;20044;-56
2023/01/30 09:07:32;;;;;;;8.57;5.32;;;;;;;;;;5073856;28;20171;-56
2023/01/30 09:09:58;;;;;;;9.07;5.38;;;;;;;;;;5071477;28;20048;-56
2023/01/30 09:12:24;;;;;;;9.25;4.90;;;;;;;;;;5073734;28;20052;-56
2023/01/30 09:14:54;;;;;;;13.80;5.65;;;;;;;;;;5073348;28;20037;-56
2023/01/30 09:17:20;;;;;;;8.70;5.53;;;;;;;;;;5072652;28;20390;-56
2023/01/30 09:19:47;;;;;;;9.45;5.85;;;;;;;;;;5073070;28;20041;-56
2023/01/30 09:22:13;;;;;;;11.43;5.88;;;;;;;;;;5073953;28;20044;-56
2023/01/30 09:24:39;;;;;;;8.23;4.25;;;;;;;;;;5071962;28;20052;-56
2023/01/30 09:27:05;;;;;;;12.68;5.53;;;;;;;;;;5074158;28;20044;-56
2023/01/30 09:29:31;;;;;;;8.25;5.55;;;;;;;;;;5075504;28;20046;-56
2023/01/30 09:31:57;;;;;;;10.05;5.25;;;;;;;;;;5073907;28;20045;-56
2023/01/30 09:34:27;;;;;;;7.70;5.18;;;;;;;;;;5075152;28;20052;-56
2023/01/30 09:36:54;;;;;;;5.88;3.95;;;;;;;;;;5074805;28;20032;-56
2023/01/30 09:39:20;;;;;;;8.43;4.90;;;;;;;;;;5066928;28;20060;-56
2023/01/30 09:42:01;;;;;;;11.13;3.58;;;;;;;;;;5074766;28;20049;-56
2023/01/30 09:44:29;;;;;;;8.75;4.88;;;;;;;;;;5074513;28;20032;-56
2023/01/30 09:47:19;;;;;;;11.32;4.65;;;;;;;;;;5075167;28;20040;-55
2023/01/30 09:49:57;;;;;;;7.82;4.30;;;;;;;;;;5074508;28;20109;-56
2023/01/30 09:52:42;;;;;;;6.80;4.47;;;;;;;;;;5074504;28;20049;-56
2023/01/30 09:55:22;;;;;;;4.82;2.45;;;;;;;;;;5073386;28;20033;-56
2023/01/30 09:57:50;;;;;;;7.18;4.22;;;;;;;;;;5074890;28;20344;-56
2023/01/30 10:00:16;;;;;;;4.65;2.70;;;;;;;;;;5072091;28;20076;-56
2023/01/30 10:02:45;;;;;;;6.70;3.92;;;;;;;;;;5072418;28;20452;-56
2023/01/30 10:05:12;;;;;;;6.35;3.30;;;;;;;;;;5073451;28;20121;-56
2023/01/30 10:07:47;;;;;;;6.35;4.13;;;;;;;;;;5072183;28;20041;-56
2023/01/30 10:10:17;;;;;;;6.88;3.53;;;;;;;;;;5073026;28;20541;-56
2023/01/30 10:12:48;;;;;;;6.63;4.03;;;;;;;;;;5071634;28;20064;-56
2023/01/30 10:15:19;;;;;;;6.25;3.97;;;;;;;;;;5075312;28;20106;-56
2023/01/30 10:17:57;;;;;;;5.22;3.63;;;;;;;;;;5075760;28;20420;-56
2023/01/30 10:20:35;;;;;;;6.80;3.40;;;;;;;;;;5075992;28;20037;-56
2023/01/30 10:23:13;;;;;;;5.47;3.45;;;;;;;;;;5075373;28;20048;-56
2023/01/30 10:25:48;;;;;;;7.68;5.13;;;;;;;;;;5075698;28;20473;-56
2023/01/30 10:28:32;;;;;;;8.02;4.40;;;;;;;;;;5075515;28;20045;-56
2023/01/30 10:31:17;;;;;;;8.15;4.82;;;;;;;;;;5076307;28;20064;-56
2023/01/30 10:33:47;;;;;;;5.55;3.17;;;;;;;;;;5074133;28;20048;-56
2023/01/30 10:36:15;;;;;;;9.43;4.57;;;;;;;;;;5090926;27;20037;-56
2023/01/30 10:38:41;;;;;;;8.68;4.63;;;;;;;;;;5074563;28;20078;-56
2023/01/30 10:41:12;;;;;;;8.25;4.32;;;;;;;;;;5076081;28;20445;-56
2023/01/30 10:43:46;;;;;;;9.63;5.13;;;;;;;;;;5075840;28;20137;-56
2023/01/30 10:46:12;;;;;;;8.93;5.72;;;;;;;;;;5075441;28;20029;-56
2023/01/30 10:48:44;;;;;;;10.88;5.80;;;;;;;;;;5077188;28;20562;-56
2023/01/30 10:51:31;;;;;;;7.50;4.05;;;;;;;;;;5091241;27;20040;-56
2023/01/30 10:54:16;;;;;;;11.90;6.45;;;;;;;;;;5076378;27;20060;-56
2023/01/30 10:56:42;;;;;;;7.32;4.60;;;;;;;;;;5076606;28;20044;-56
2023/01/30 10:59:11;;;;;;;9.02;4.88;;;;;;;;;;5075468;28;20071;-56
2023/01/30 11:01:44;;;;;;;9.52;4.95;;;;;;;;;;5076496;28;20077;-56
2023/01/30 11:04:31;;;;;;;10.23;6.63;;;;;;;;;;5074560;28;20051;-56
2023/01/30 11:06:59;;;;;;;7.15;3.95;;;;;;;;;;5075489;28;20083;-56
2023/01/30 11:09:37;;;;;;;11.93;6.32;;;;;;;;;;5075341;28;20111;-56
2023/01/30 11:12:03;;;;;;;8.70;5.80;;;;;;;;;;5075586;28;20065;-56
2023/01/30 11:14:48;;;;;;;9.52;5.22;;;;;;;;;;5075921;28;20048;-56
2023/01/30 11:17:18;;;;;;;9.02;4.43;;;;;;;;;;5075101;28;20906;-56
2023/01/30 11:19:44;;;;;;;10.50;6.10;;;;;;;;;;5074903;28;20082;-56
2023/01/30 11:22:12;;;;;;;7.90;5.30;;;;;;;;;;5092093;27;20033;-56
2023/01/30 11:24:40;;;;;;;9.82;5.50;;;;;;;;;;5074024;28;20091;-56
2023/01/30 11:27:09;;;;;;;10.05;6.20;;;;;;;;;;5074459;28;20048;-56
2023/01/30 11:29:37;;;;;;;8.32;4.15;;;;;;;;;;5073887;28;20040;-56
2023/01/30 11:32:05;;;;;;;10.48;5.60;;;;;;;;;;5073501;28;20042;-56
2023/01/30 11:34:31;;;;;;;8.25;4.72;;;;;;;;;;5075516;28;20103;-56
2023/01/30 11:37:17;;;;;;;9.55;5.60;;;;;;;;;;5075912;28;20697;-56
2023/01/30 11:40:07;;;;;;;10.55;6.75;;;;;;;;;;5073587;27;20052;-56
2023/01/30 11:42:33;;;;;;;9.88;5.28;;;;;;;;;;5077384;27;20045;-56
2023/01/30 11:45:01;;;;;;;8.93;5.43;;;;;;;;;;5075709;28;20689;-56
2023/01/30 11:47:30;;;;;;;10.73;4.90;;;;;;;;;;5075105;28;20494;-56
2023/01/30 11:50:00;;;;;;;9.45;6.55;;;;;;;;;;5074272;27;20040;-56
2023/01/30 11:52:28;;;;;;;8.23;5.00;;;;;;;;;;5075900;28;20041;-56
2023/01/30 11:55:00;;;;;;;8.90;5.88;;;;;;;;;;5073753;28;20051;-56
2023/01/30 11:57:26;;;;;;;10.33;5.67;;;;;;;;;;5075620;28;20048;-56
2023/01/30 11:59:56;;;;;;;7.45;3.55;;;;;;;;;;5073857;28;20040;-56
2023/01/30 12:02:28;;;;;;;8.43;4.75;;;;;;;;;;5071573;28;20077;-56
2023/01/30 12:04:56;;;;;;;8.25;4.43;;;;;;;;;;5073164;28;20115;-56
2023/01/30 12:07:26;;;;;;;7.45;5.22;;;;;;;;;;5073813;28;20566;-56
2023/01/30 12:09:53;;;;;;;10.88;5.72;;;;;;;;;;5073664;28;20033;-56
2023/01/30 12:12:25;;;;;;;7.03;4.05;;;;;;;;;;5076285;28;20057;-56
2023/01/30 12:14:52;;;;;;;8.77;5.00;;;;;;;;;;5074882;28;20045;-56
2023/01/30 12:17:32;;;;;;;6.32;3.05;;;;;;;;;;5075352;28;20050;-56
2023/01/30 12:20:05;;;;;;;8.65;5.30;;;;;;;;;;5074197;28;20159;-56
2023/01/30 12:22:30;;;;;;;;;;;;;;;;;;5074230;28;20048;-56
2023/01/30 12:24:58;;;;;;;9.00;5.05;;;;;;;;;;5072614;28;20019;-56
2023/01/30 12:27:28;;;;;;;9.15;5.65;;;;;;;;;;5071496;28;20123;-56
2023/01/30 12:29:59;;;;;;;11.27;5.70;;;;;;;;;;5102622;27;20044;-56
2023/01/30 12:32:26;;;;;;;8.32;6.07;;;;;;;;;;5073333;28;20051;-56
2023/01/30 12:34:52;;;;;;;8.73;5.15;;;;;;;;;;5089363;27;20071;-56
2023/01/30 12:37:31;;;;;;;9.55;5.70;;;;;;;;;;5074684;28;20126;-56
2023/01/30 12:40:07;;;;;;;11.50;7.07;;;;;;;;;;5073163;28;20554;-56
2023/01/30 12:42:33;;;;;;;8.77;5.55;;;;;;;;;;5074885;28;20585;-56
2023/01/30 12:45:05;;;;;;;10.07;6.72;;;;;;;;;;5088711;27;20044;-56
2023/01/30 12:47:50;;;;;;;12.25;6.35;;;;;;;;;;5074642;28;20092;-56
2023/01/30 12:50:20;;;;;;;5.40;3.00;;;;;;;;;;5074598;28;20151;-56
2023/01/30 12:53:04;;;;;;;7.05;4.55;;;;;;;;;;5074073;28;20039;-56
2023/01/30 12:55:33;;;;;;;14.35;6.68;;;;;;;;;;5069657;28;20052;-56
2023/01/30 12:58:11;;;;;;;12.93;6.35;;;;;;;;;;5071912;28;20040;-56
2023/01/30 13:00:56;;;;;;;8.45;6.07;;;;;;;;;;5087302;27;20078;-56
2023/01/30 13:03:26;;;;;;;10.02;5.30;;;;;;;;;;5072620;28;20041;-56
2023/01/30 13:05:53;;;;;;;10.35;5.65;;;;;;;;;;5073833;28;20048;-56
2023/01/30 13:08:37;;;;;;;8.60;4.10;;;;;;;;;;5074719;28;20059;-56
2023/01/30 13:11:10;;;;;;;11.48;7.00;;;;;;;;;;5073732;28;20151;-56
2023/01/30 13:13:41;;;;;;;6.97;3.55;;;;;;;;;;5073207;28;20051;-56
2023/01/30 13:16:12;;;;;;;11.88;7.30;;;;;;;;;;5073524;28;20056;-56
2023/01/30 13:18:42;;;;;;;8.70;5.57;;;;;;;;;;5075180;28;20044;-56
2023/01/30 13:21:08;;;;;;;10.18;4.40;;;;;;;;;;5074115;28;20106;-56
2023/01/30 13:23:41;;;;;;;9.52;5.90;;;;;;;;;;5073696;28;20894;-56
2023/01/30 13:26:10;;;;;;;9.32;6.20;;;;;;;;;;5085259;27;20032;-56
2023/01/30 13:28:47;;;;;;;9.32;5.75;;;;;;;;;;5073554;28;20048;-57
2023/01/30 13:31:17;;;;;;;10.23;6.53;;;;;;;;;;5074329;28;20181;-56
2023/01/30 13:33:45;;;;;;;8.95;4.80;;;;;;;;;;5081131;28;20045;-56
2023/01/30 13:36:34;;;;;;;6.85;4.78;;;;;;;;;;5064337;28;20604;-56
2023/01/30 13:39:05;;;;;;;9.80;6.03;;;;;;;;;;5064070;28;20088;-56
2023/01/30 13:41:43;;;;;;;8.57;5.90;;;;;;;;;;5072349;28;20040;-56
2023/01/30 13:44:18;;;;;;;8.82;5.85;;;;;;;;;;5073846;28;20241;-56
2023/01/30 13:46:44;;;;;;;9.88;6.00;;;;;;;;;;5085742;27;20037;-56
2023/01/30 13:49:24;;;;;;;9.82;5.68;;;;;;;;;;5077372;28;20563;-56
2023/01/30 13:51:57;;;;;;;9.00;5.30;;;;;;;;;;5078034;28;20159;-56
2023/01/30 13:54:33;;;;;;;8.13;5.07;;;;;;;;;;5075820;28;20043;-57
2023/01/30 13:57:15;;;;;;;9.45;5.68;;;;;;;;;;5075886;28;20044;-56
2023/01/30 13:59:50;;;;;;;9.75;5.43;;;;;;;;;;5076132;28;20036;-56
2023/01/30 14:02:16;;;;;;;8.98;5.90;;;;;;;;;;5076025;28;20097;-56
2023/01/30 14:04:44;;;;;;;9.00;5.60;;;;;;;;;;5076522;28;20507;-56
2023/01/30 14:07:28;;;;;;;7.00;5.20;;;;;;;;;;5075859;28;20124;-56
2023/01/30 14:10:09;;;;;;;10.32;5.15;;;;;;;;;;5074546;28;20036;-56
2023/01/30 14:12:38;;;;;;;6.40;3.75;;;;;;;;;;5075760;28;20055;-56
2023/01/30 14:15:04;;;;;;;9.85;5.57;;;;;;;;;;5075700;28;20037;-56
2023/01/30 14:17:30;;;;;;;8.20;4.75;;;;;;;;;;5073439;28;20048;-56
2023/01/30 14:20:01;;;;;;;9.07;5.10;;;;;;;;;;5076711;28;20041;-56
2023/01/30 14:22:27;;;;;;;8.43;5.15;;;;;;;;;;5076173;28;20138;-56
2023/01/30 14:25:11;;;;;;;7.65;4.03;;;;;;;;;;5092454;28;20130;-56
2023/01/30 14:27:38;;;;;;;8.00;4.70;;;;;;;;;;5077545;28;20524;-56
2023/01/30 14:30:23;;;;;;;7.60;4.38;;;;;;;;;;5076844;28;20052;-56
2023/01/30 14:32:51;;;;;;;7.57;4.53;;;;;;;;;;5075637;28;20634;-56
2023/01/30 14:35:20;;;;;;;4.47;2.60;;;;;;;;;;5076336;28;20036;-55
2023/01/30 14:37:48;;;;;;;5.85;4.28;;;;;;;;;;5077595;28;20049;-56
2023/01/30 14:40:23;;;;;;;6.90;4.47;;;;;;;;;;5076088;28;20037;-56
2023/01/30 14:43:08;;;;;;;5.38;2.97;;;;;;;;;;5077703;28;20067;-56
2023/01/30 14:45:50;;;;;;;8.05;3.25;;;;;;;;;;5077542;28;20064;-56
2023/01/30 14:48:16;;;;;;;;;;;;;;;;;;5077939;28;20068;-56